sensor_id;sensor_type;location;lat;lon;timestamp;P1;durP1;ratioP1;P2;durP2;ratioP2
10007;SDS011;5043;41.766;26.204;2022-12-20T00:01:51;15.43;;;8.60;;
10007;SDS011;5043;41.766;26.204;2022-12-20T00:04:17;14.57;;;7.97;;
10007;SDS011;5043;41.766;26.204;2022-12-20T00:06:42;18.30;;;9.00;;
10007;SDS011;5043;41.766;26.204;2022-12-20T00:09:08;16.17;;;8.20;;
10007;SDS011;5043;41.766;26.204;2022-12-20T00:11:34;24.43;;;10.50;;
10007;SDS011;5043;41.766;26.204;2022-12-20T00:14:02;16.60;;;8.30;;
10007;SDS011;5043;41.766;26.204;2022-12-20T00:16:28;12.37;;;7.93;;
10007;SDS011;5043;41.766;26.204;2022-12-20T00:18:55;10.60;;;7.13;;
10007;SDS011;5043;41.766;26.204;2022-12-20T00:21:22;13.57;;;7.40;;
10007;SDS011;5043;41.766;26.204;2022-12-20T00:23:48;11.83;;;7.03;;
10007;SDS011;5043;41.766;26.204;2022-12-20T00:26:16;12.97;;;7.90;;
10007;SDS011;5043;41.766;26.204;2022-12-20T00:28:42;11.80;;;7.07;;
10007;SDS011;5043;41.766;26.204;2022-12-20T00:31:09;15.67;;;8.23;;
10007;SDS011;5043;41.766;26.204;2022-12-20T00:33:36;18.13;;;8.90;;
10007;SDS011;5043;41.766;26.204;2022-12-20T00:36:03;11.53;;;7.33;;
10007;SDS011;5043;41.766;26.204;2022-12-20T00:38:30;14.40;;;7.20;;
10007;SDS011;5043;41.766;26.204;2022-12-20T00:41:01;13.80;;;7.73;;
10007;SDS011;5043;41.766;26.204;2022-12-20T00:43:29;15.77;;;7.80;;
10007;SDS011;5043;41.766;26.204;2022-12-20T00:45:55;17.80;;;8.77;;
10007;SDS011;5043;41.766;26.204;2022-12-20T00:48:21;15.63;;;8.13;;
10007;SDS011;5043;41.766;26.204;2022-12-20T00:50:47;13.27;;;6.87;;
10007;SDS011;5043;41.766;26.204;2022-12-20T00:53:12;11.67;;;6.20;;
10007;SDS011;5043;41.766;26.204;2022-12-20T00:55:41;14.60;;;6.60;;
10007;SDS011;5043;41.766;26.204;2022-12-20T00:58:08;16.27;;;7.37;;
10007;SDS011;5043;41.766;26.204;2022-12-20T01:00:33;11.93;;;6.67;;
10007;SDS011;5043;41.766;26.204;2022-12-20T01:02:59;13.80;;;6.87;;
10007;SDS011;5043;41.766;26.204;2022-12-20T01:05:24;13.17;;;6.57;;
10007;SDS011;5043;41.766;26.204;2022-12-20T01:07:50;12.83;;;7.47;;
10007;SDS011;5043;41.766;26.204;2022-12-20T01:10:15;14.87;;;8.70;;
10007;SDS011;5043;41.766;26.204;2022-12-20T01:12:42;13.67;;;7.73;;
10007;SDS011;5043;41.766;26.204;2022-12-20T01:15:07;14.57;;;7.17;;
10007;SDS011;5043;41.766;26.204;2022-12-20T01:17:33;12.00;;;7.43;;
10007;SDS011;5043;41.766;26.204;2022-12-20T01:19:59;11.53;;;7.20;;
10007;SDS011;5043;41.766;26.204;2022-12-20T01:22:25;12.67;;;8.10;;
10007;SDS011;5043;41.766;26.204;2022-12-20T01:24:50;10.60;;;7.57;;
10007;SDS011;5043;41.766;26.204;2022-12-20T01:27:16;12.53;;;8.40;;
10007;SDS011;5043;41.766;26.204;2022-12-20T01:29:41;13.03;;;8.03;;
10007;SDS011;5043;41.766;26.204;2022-12-20T01:32:07;13.37;;;8.50;;
10007;SDS011;5043;41.766;26.204;2022-12-20T01:34:32;12.93;;;8.10;;
10007;SDS011;5043;41.766;26.204;2022-12-20T01:36:57;11.27;;;7.33;;
10007;SDS011;5043;41.766;26.204;2022-12-20T01:39:23;14.23;;;8.00;;
10007;SDS011;5043;41.766;26.204;2022-12-20T01:41:48;13.70;;;8.10;;
10007;SDS011;5043;41.766;26.204;2022-12-20T01:46:42;13.77;;;8.00;;
10007;SDS011;5043;41.766;26.204;2022-12-20T01:51:35;11.20;;;6.87;;
10007;SDS011;5043;41.766;26.204;2022-12-20T01:54:07;11.80;;;7.27;;
10007;SDS011;5043;41.766;26.204;2022-12-20T01:56:37;11.27;;;7.27;;
10007;SDS011;5043;41.766;26.204;2022-12-20T01:59:05;13.13;;;6.67;;
10007;SDS011;5043;41.766;26.204;2022-12-20T02:01:33;12.37;;;6.57;;
10007;SDS011;5043;41.766;26.204;2022-12-20T02:03:58;17.57;;;7.13;;
10007;SDS011;5043;41.766;26.204;2022-12-20T02:06:24;11.10;;;7.43;;
10007;SDS011;5043;41.766;26.204;2022-12-20T02:08:51;14.73;;;6.77;;
10007;SDS011;5043;41.766;26.204;2022-12-20T02:11:40;10.93;;;6.73;;
10007;SDS011;5043;41.766;26.204;2022-12-20T02:30:41;12.87;;;7.13;;
10007;SDS011;5043;41.766;26.204;2022-12-20T02:33:11;13.73;;;7.87;;
10007;SDS011;5043;41.766;26.204;2022-12-20T02:35:38;10.80;;;6.70;;
10007;SDS011;5043;41.766;26.204;2022-12-20T02:41:01;12.90;;;6.80;;
10007;SDS011;5043;41.766;26.204;2022-12-20T02:43:28;12.40;;;7.13;;
10007;SDS011;5043;41.766;26.204;2022-12-20T02:46:15;12.30;;;7.33;;
10007;SDS011;5043;41.766;26.204;2022-12-20T02:48:43;13.40;;;7.53;;
10007;SDS011;5043;41.766;26.204;2022-12-20T02:51:12;12.97;;;7.50;;
10007;SDS011;5043;41.766;26.204;2022-12-20T02:53:40;13.70;;;7.90;;
10007;SDS011;5043;41.766;26.204;2022-12-20T02:59:03;14.47;;;7.80;;
10007;SDS011;5043;41.766;26.204;2022-12-20T03:01:52;11.27;;;7.30;;
10007;SDS011;5043;41.766;26.204;2022-12-20T03:04:19;12.60;;;7.53;;
10007;SDS011;5043;41.766;26.204;2022-12-20T03:07:00;13.87;;;7.17;;
10007;SDS011;5043;41.766;26.204;2022-12-20T03:09:29;12.50;;;7.27;;
10007;SDS011;5043;41.766;26.204;2022-12-20T03:11:56;13.73;;;7.60;;
10007;SDS011;5043;41.766;26.204;2022-12-20T03:14:23;16.50;;;8.13;;
10007;SDS011;5043;41.766;26.204;2022-12-20T03:16:49;10.83;;;7.37;;
10007;SDS011;5043;41.766;26.204;2022-12-20T03:19:14;14.73;;;7.50;;
10007;SDS011;5043;41.766;26.204;2022-12-20T03:21:40;14.47;;;8.13;;
10007;SDS011;5043;41.766;26.204;2022-12-20T03:24:06;13.57;;;7.10;;
10007;SDS011;5043;41.766;26.204;2022-12-20T03:26:32;12.13;;;7.40;;
10007;SDS011;5043;41.766;26.204;2022-12-20T03:28:57;14.10;;;7.90;;
10007;SDS011;5043;41.766;26.204;2022-12-20T03:31:24;11.27;;;6.50;;
10007;SDS011;5043;41.766;26.204;2022-12-20T03:33:50;13.97;;;7.63;;
10007;SDS011;5043;41.766;26.204;2022-12-20T03:36:15;12.07;;;7.00;;
10007;SDS011;5043;41.766;26.204;2022-12-20T03:38:41;13.63;;;7.83;;
10007;SDS011;5043;41.766;26.204;2022-12-20T03:41:07;12.70;;;7.60;;
10007;SDS011;5043;41.766;26.204;2022-12-20T03:43:32;13.10;;;7.20;;
10007;SDS011;5043;41.766;26.204;2022-12-20T03:45:57;9.97;;;6.80;;
10007;SDS011;5043;41.766;26.204;2022-12-20T03:48:23;12.30;;;8.00;;
10007;SDS011;5043;41.766;26.204;2022-12-20T03:50:48;14.00;;;6.73;;
10007;SDS011;5043;41.766;26.204;2022-12-20T03:53:14;13.97;;;7.50;;
10007;SDS011;5043;41.766;26.204;2022-12-20T03:55:39;14.73;;;7.20;;
10007;SDS011;5043;41.766;26.204;2022-12-20T03:58:04;15.93;;;7.87;;
10007;SDS011;5043;41.766;26.204;2022-12-20T04:00:30;12.80;;;7.30;;
10007;SDS011;5043;41.766;26.204;2022-12-20T04:02:55;12.70;;;7.97;;
10007;SDS011;5043;41.766;26.204;2022-12-20T04:05:21;13.93;;;7.43;;
10007;SDS011;5043;41.766;26.204;2022-12-20T04:07:46;11.93;;;7.77;;
10007;SDS011;5043;41.766;26.204;2022-12-20T04:10:12;14.13;;;8.00;;
10007;SDS011;5043;41.766;26.204;2022-12-20T04:12:37;14.63;;;8.37;;
10007;SDS011;5043;41.766;26.204;2022-12-20T04:15:03;15.23;;;8.70;;
10007;SDS011;5043;41.766;26.204;2022-12-20T04:17:29;16.03;;;8.27;;
10007;SDS011;5043;41.766;26.204;2022-12-20T04:19:54;17.93;;;8.30;;
10007;SDS011;5043;41.766;26.204;2022-12-20T04:22:19;15.47;;;8.70;;
10007;SDS011;5043;41.766;26.204;2022-12-20T04:24:45;17.87;;;8.97;;
10007;SDS011;5043;41.766;26.204;2022-12-20T04:27:10;12.97;;;9.20;;
10007;SDS011;5043;41.766;26.204;2022-12-20T04:29:36;17.30;;;9.37;;
10007;SDS011;5043;41.766;26.204;2022-12-20T04:32:02;17.50;;;8.70;;
10007;SDS011;5043;41.766;26.204;2022-12-20T04:34:27;19.17;;;10.00;;
10007;SDS011;5043;41.766;26.204;2022-12-20T04:36:53;16.87;;;8.50;;
10007;SDS011;5043;41.766;26.204;2022-12-20T04:39:18;17.73;;;9.43;;
10007;SDS011;5043;41.766;26.204;2022-12-20T04:41:44;14.03;;;7.97;;
10007;SDS011;5043;41.766;26.204;2022-12-20T04:44:09;14.63;;;8.07;;
10007;SDS011;5043;41.766;26.204;2022-12-20T04:46:35;13.90;;;9.43;;
10007;SDS011;5043;41.766;26.204;2022-12-20T04:49:02;13.90;;;8.63;;
10007;SDS011;5043;41.766;26.204;2022-12-20T04:51:27;16.07;;;9.33;;
10007;SDS011;5043;41.766;26.204;2022-12-20T04:53:53;18.33;;;9.70;;
10007;SDS011;5043;41.766;26.204;2022-12-20T04:56:20;14.33;;;9.47;;
10007;SDS011;5043;41.766;26.204;2022-12-20T04:58:52;14.80;;;9.30;;
10007;SDS011;5043;41.766;26.204;2022-12-20T05:01:19;17.77;;;9.20;;
10007;SDS011;5043;41.766;26.204;2022-12-20T05:03:45;19.63;;;8.83;;
10007;SDS011;5043;41.766;26.204;2022-12-20T05:06:12;15.10;;;9.73;;
10007;SDS011;5043;41.766;26.204;2022-12-20T05:08:38;14.33;;;8.73;;
10007;SDS011;5043;41.766;26.204;2022-12-20T05:11:04;19.73;;;9.67;;
10007;SDS011;5043;41.766;26.204;2022-12-20T05:13:30;14.90;;;9.07;;
10007;SDS011;5043;41.766;26.204;2022-12-20T05:15:56;16.07;;;8.97;;
10007;SDS011;5043;41.766;26.204;2022-12-20T05:18:23;15.50;;;9.50;;
10007;SDS011;5043;41.766;26.204;2022-12-20T05:20:49;19.60;;;9.73;;
10007;SDS011;5043;41.766;26.204;2022-12-20T05:23:34;16.20;;;9.43;;
10007;SDS011;5043;41.766;26.204;2022-12-20T05:26:18;12.57;;;8.13;;
10007;SDS011;5043;41.766;26.204;2022-12-20T05:28:44;15.93;;;9.93;;
10007;SDS011;5043;41.766;26.204;2022-12-20T05:31:09;17.73;;;9.33;;
10007;SDS011;5043;41.766;26.204;2022-12-20T05:33:35;16.50;;;9.43;;
10007;SDS011;5043;41.766;26.204;2022-12-20T05:36:00;15.33;;;9.90;;
10007;SDS011;5043;41.766;26.204;2022-12-20T05:38:26;17.20;;;9.97;;
10007;SDS011;5043;41.766;26.204;2022-12-20T05:40:51;19.43;;;9.87;;
10007;SDS011;5043;41.766;26.204;2022-12-20T05:43:17;20.37;;;10.27;;
10007;SDS011;5043;41.766;26.204;2022-12-20T05:45:44;23.83;;;11.97;;
10007;SDS011;5043;41.766;26.204;2022-12-20T05:48:13;25.07;;;12.67;;
10007;SDS011;5043;41.766;26.204;2022-12-20T05:50:40;22.47;;;12.00;;
10007;SDS011;5043;41.766;26.204;2022-12-20T05:53:05;23.80;;;12.37;;
10007;SDS011;5043;41.766;26.204;2022-12-20T05:55:31;22.57;;;12.77;;
10007;SDS011;5043;41.766;26.204;2022-12-20T05:57:56;24.23;;;12.57;;
10007;SDS011;5043;41.766;26.204;2022-12-20T06:00:22;24.57;;;13.77;;
10007;SDS011;5043;41.766;26.204;2022-12-20T06:02:48;23.57;;;13.43;;
10007;SDS011;5043;41.766;26.204;2022-12-20T06:05:13;22.17;;;13.20;;
10007;SDS011;5043;41.766;26.204;2022-12-20T06:07:39;28.63;;;13.40;;
10007;SDS011;5043;41.766;26.204;2022-12-20T06:10:04;18.00;;;10.67;;
10007;SDS011;5043;41.766;26.204;2022-12-20T06:12:31;23.13;;;12.63;;
10007;SDS011;5043;41.766;26.204;2022-12-20T06:14:57;19.53;;;10.87;;
10007;SDS011;5043;41.766;26.204;2022-12-20T06:17:22;29.87;;;16.27;;
10007;SDS011;5043;41.766;26.204;2022-12-20T06:19:48;27.83;;;16.60;;
10007;SDS011;5043;41.766;26.204;2022-12-20T06:22:13;23.97;;;12.83;;
10007;SDS011;5043;41.766;26.204;2022-12-20T06:24:39;18.47;;;11.57;;
10007;SDS011;5043;41.766;26.204;2022-12-20T06:27:04;18.07;;;11.83;;
10007;SDS011;5043;41.766;26.204;2022-12-20T06:29:31;21.93;;;11.90;;
10007;SDS011;5043;41.766;26.204;2022-12-20T06:31:57;16.57;;;10.33;;
10007;SDS011;5043;41.766;26.204;2022-12-20T06:34:22;17.40;;;10.87;;
10007;SDS011;5043;41.766;26.204;2022-12-20T06:36:48;21.37;;;11.60;;
10007;SDS011;5043;41.766;26.204;2022-12-20T06:39:13;17.53;;;11.70;;
10007;SDS011;5043;41.766;26.204;2022-12-20T06:41:39;20.67;;;12.97;;
10007;SDS011;5043;41.766;26.204;2022-12-20T06:44:05;20.23;;;12.10;;
10007;SDS011;5043;41.766;26.204;2022-12-20T06:46:31;18.00;;;11.33;;
10007;SDS011;5043;41.766;26.204;2022-12-20T06:48:56;19.90;;;11.73;;
10007;SDS011;5043;41.766;26.204;2022-12-20T06:51:22;17.77;;;11.60;;
10007;SDS011;5043;41.766;26.204;2022-12-20T06:53:47;23.50;;;12.07;;
10007;SDS011;5043;41.766;26.204;2022-12-20T06:56:13;19.13;;;11.30;;
10007;SDS011;5043;41.766;26.204;2022-12-20T06:58:38;18.40;;;12.07;;
10007;SDS011;5043;41.766;26.204;2022-12-20T07:01:04;25.47;;;12.83;;
10007;SDS011;5043;41.766;26.204;2022-12-20T07:03:30;23.40;;;14.03;;
10007;SDS011;5043;41.766;26.204;2022-12-20T07:05:55;24.10;;;13.13;;
10007;SDS011;5043;41.766;26.204;2022-12-20T07:08:21;22.10;;;12.33;;
10007;SDS011;5043;41.766;26.204;2022-12-20T07:10:47;19.20;;;12.70;;
10007;SDS011;5043;41.766;26.204;2022-12-20T07:13:13;20.53;;;12.33;;
10007;SDS011;5043;41.766;26.204;2022-12-20T07:15:38;21.40;;;13.13;;
10007;SDS011;5043;41.766;26.204;2022-12-20T07:18:04;21.00;;;13.23;;
10007;SDS011;5043;41.766;26.204;2022-12-20T07:20:30;19.00;;;11.83;;
10007;SDS011;5043;41.766;26.204;2022-12-20T07:22:56;29.63;;;15.53;;
10007;SDS011;5043;41.766;26.204;2022-12-20T07:25:21;24.13;;;13.30;;
10007;SDS011;5043;41.766;26.204;2022-12-20T07:27:47;24.13;;;13.40;;
10007;SDS011;5043;41.766;26.204;2022-12-20T07:30:16;37.27;;;16.00;;
10007;SDS011;5043;41.766;26.204;2022-12-20T07:32:44;24.70;;;13.43;;
10007;SDS011;5043;41.766;26.204;2022-12-20T07:35:11;28.60;;;14.50;;
10007;SDS011;5043;41.766;26.204;2022-12-20T07:37:38;27.17;;;13.37;;
10007;SDS011;5043;41.766;26.204;2022-12-20T07:40:04;38.07;;;16.10;;
10007;SDS011;5043;41.766;26.204;2022-12-20T07:42:30;24.50;;;13.73;;
10007;SDS011;5043;41.766;26.204;2022-12-20T07:44:57;32.27;;;15.67;;
10007;SDS011;5043;41.766;26.204;2022-12-20T07:47:24;35.47;;;16.87;;
10007;SDS011;5043;41.766;26.204;2022-12-20T07:49:50;26.67;;;13.57;;
10007;SDS011;5043;41.766;26.204;2022-12-20T07:52:16;25.23;;;14.73;;
10007;SDS011;5043;41.766;26.204;2022-12-20T07:54:46;24.37;;;14.00;;
10007;SDS011;5043;41.766;26.204;2022-12-20T07:57:23;27.33;;;13.60;;
10007;SDS011;5043;41.766;26.204;2022-12-20T07:59:53;20.83;;;12.57;;
10007;SDS011;5043;41.766;26.204;2022-12-20T08:02:26;23.87;;;13.73;;
10007;SDS011;5043;41.766;26.204;2022-12-20T08:04:59;18.47;;;11.53;;
10007;SDS011;5043;41.766;26.204;2022-12-20T08:07:27;22.20;;;12.33;;
10007;SDS011;5043;41.766;26.204;2022-12-20T08:09:54;21.90;;;13.13;;
10007;SDS011;5043;41.766;26.204;2022-12-20T08:12:20;65.50;;;32.97;;
10007;SDS011;5043;41.766;26.204;2022-12-20T08:14:48;34.07;;;20.10;;
10007;SDS011;5043;41.766;26.204;2022-12-20T08:17:17;29.80;;;19.60;;
10007;SDS011;5043;41.766;26.204;2022-12-20T08:19:43;28.77;;;17.67;;
10007;SDS011;5043;41.766;26.204;2022-12-20T08:22:11;21.73;;;14.60;;
10007;SDS011;5043;41.766;26.204;2022-12-20T08:24:37;21.43;;;13.20;;
10007;SDS011;5043;41.766;26.204;2022-12-20T08:27:02;23.87;;;13.77;;
10007;SDS011;5043;41.766;26.204;2022-12-20T08:29:28;23.93;;;14.87;;
10007;SDS011;5043;41.766;26.204;2022-12-20T08:31:53;38.93;;;20.10;;
10007;SDS011;5043;41.766;26.204;2022-12-20T08:34:19;18.33;;;12.77;;
10007;SDS011;5043;41.766;26.204;2022-12-20T08:36:44;21.37;;;13.27;;
10007;SDS011;5043;41.766;26.204;2022-12-20T08:39:09;20.67;;;11.87;;
10007;SDS011;5043;41.766;26.204;2022-12-20T08:41:35;24.33;;;12.07;;
10007;SDS011;5043;41.766;26.204;2022-12-20T08:44:01;15.67;;;11.00;;
10007;SDS011;5043;41.766;26.204;2022-12-20T08:46:30;16.60;;;10.83;;
10007;SDS011;5043;41.766;26.204;2022-12-20T08:48:57;16.13;;;11.10;;
10007;SDS011;5043;41.766;26.204;2022-12-20T08:51:23;18.83;;;11.87;;
10007;SDS011;5043;41.766;26.204;2022-12-20T08:53:48;17.23;;;10.93;;
10007;SDS011;5043;41.766;26.204;2022-12-20T08:56:14;17.23;;;11.47;;
10007;SDS011;5043;41.766;26.204;2022-12-20T08:58:41;17.97;;;11.10;;
10007;SDS011;5043;41.766;26.204;2022-12-20T09:01:09;15.13;;;10.47;;
10007;SDS011;5043;41.766;26.204;2022-12-20T09:03:36;20.50;;;13.40;;
10007;SDS011;5043;41.766;26.204;2022-12-20T09:06:06;17.37;;;11.27;;
10007;SDS011;5043;41.766;26.204;2022-12-20T09:08:35;17.03;;;10.83;;
10007;SDS011;5043;41.766;26.204;2022-12-20T09:11:04;16.77;;;11.27;;
10007;SDS011;5043;41.766;26.204;2022-12-20T09:13:29;16.93;;;11.27;;
10007;SDS011;5043;41.766;26.204;2022-12-20T09:15:55;17.03;;;10.87;;
10007;SDS011;5043;41.766;26.204;2022-12-20T09:18:20;16.20;;;11.57;;
10007;SDS011;5043;41.766;26.204;2022-12-20T09:20:46;15.67;;;11.17;;
10007;SDS011;5043;41.766;26.204;2022-12-20T09:23:11;19.47;;;11.97;;
10007;SDS011;5043;41.766;26.204;2022-12-20T09:25:37;16.77;;;10.93;;
10007;SDS011;5043;41.766;26.204;2022-12-20T09:28:03;17.90;;;11.80;;
10007;SDS011;5043;41.766;26.204;2022-12-20T09:30:28;17.90;;;11.73;;
10007;SDS011;5043;41.766;26.204;2022-12-20T09:32:54;26.33;;;15.77;;
10007;SDS011;5043;41.766;26.204;2022-12-20T09:35:21;15.18;;;11.15;;
10007;SDS011;5043;41.766;26.204;2022-12-20T09:37:46;18.02;;;12.27;;
10007;SDS011;5043;41.766;26.204;2022-12-20T09:40:16;15.63;;;11.17;;
10007;SDS011;5043;41.766;26.204;2022-12-20T09:42:43;18.80;;;12.43;;
10007;SDS011;5043;41.766;26.204;2022-12-20T09:45:11;16.38;;;10.57;;
10007;SDS011;5043;41.766;26.204;2022-12-20T09:47:45;18.23;;;10.07;;
10007;SDS011;5043;41.766;26.204;2022-12-20T09:50:13;21.17;;;13.60;;
10007;SDS011;5043;41.766;26.204;2022-12-20T09:55:40;13.20;;;9.47;;
10007;SDS011;5043;41.766;26.204;2022-12-20T10:00:46;16.98;;;10.85;;
10007;SDS011;5043;41.766;26.204;2022-12-20T10:03:30;21.38;;;13.57;;
10007;SDS011;5043;41.766;26.204;2022-12-20T10:06:03;13.45;;;9.23;;
10007;SDS011;5043;41.766;26.204;2022-12-20T10:08:54;13.07;;;9.18;;
10007;SDS011;5043;41.766;26.204;2022-12-20T10:19:56;11.25;;;8.50;;
10007;SDS011;5043;41.766;26.204;2022-12-20T10:22:42;14.25;;;9.07;;
10007;SDS011;5043;41.766;26.204;2022-12-20T10:25:29;17.52;;;9.18;;
10007;SDS011;5043;41.766;26.204;2022-12-20T10:27:56;13.43;;;9.18;;
10007;SDS011;5043;41.766;26.204;2022-12-20T10:30:26;14.27;;;10.05;;
10007;SDS011;5043;41.766;26.204;2022-12-20T10:32:53;11.95;;;8.57;;
10007;SDS011;5043;41.766;26.204;2022-12-20T10:38:04;11.25;;;8.23;;
10007;SDS011;5043;41.766;26.204;2022-12-20T10:43:05;10.88;;;8.00;;
10007;SDS011;5043;41.766;26.204;2022-12-20T10:45:43;11.18;;;7.90;;
10007;SDS011;5043;41.766;26.204;2022-12-20T10:48:29;13.32;;;8.82;;
10007;SDS011;5043;41.766;26.204;2022-12-20T10:51:19;15.30;;;9.13;;
10007;SDS011;5043;41.766;26.204;2022-12-20T10:59:01;10.43;;;7.60;;
10007;SDS011;5043;41.766;26.204;2022-12-20T11:01:47;15.57;;;8.90;;
10007;SDS011;5043;41.766;26.204;2022-12-20T11:04:27;15.57;;;7.95;;
10007;SDS011;5043;41.766;26.204;2022-12-20T11:06:55;10.10;;;7.50;;
10007;SDS011;5043;41.766;26.204;2022-12-20T11:09:22;34.97;;;19.63;;
10007;SDS011;5043;41.766;26.204;2022-12-20T11:14:30;10.70;;;6.97;;
10007;SDS011;5043;41.766;26.204;2022-12-20T11:16:57;10.87;;;7.90;;
10007;SDS011;5043;41.766;26.204;2022-12-20T11:27:39;9.03;;;5.97;;
10007;SDS011;5043;41.766;26.204;2022-12-20T11:30:32;10.47;;;6.37;;
10007;SDS011;5043;41.766;26.204;2022-12-20T11:36:02;10.47;;;7.17;;
10007;SDS011;5043;41.766;26.204;2022-12-20T11:38:39;9.53;;;7.20;;
10007;SDS011;5043;41.766;26.204;2022-12-20T11:43:56;12.20;;;8.10;;
10007;SDS011;5043;41.766;26.204;2022-12-20T11:46:38;14.00;;;7.13;;
10007;SDS011;5043;41.766;26.204;2022-12-20T11:49:28;10.18;;;6.15;;
10007;SDS011;5043;41.766;26.204;2022-12-20T11:54:56;9.20;;;6.80;;
10007;SDS011;5043;41.766;26.204;2022-12-20T11:58:04;8.30;;;5.78;;
10007;SDS011;5043;41.766;26.204;2022-12-20T12:00:57;8.82;;;6.78;;
10007;SDS011;5043;41.766;26.204;2022-12-20T12:03:35;9.00;;;6.65;;
10007;SDS011;5043;41.766;26.204;2022-12-20T12:06:15;7.15;;;5.07;;
10007;SDS011;5043;41.766;26.204;2022-12-20T12:11:34;7.68;;;5.13;;
10007;SDS011;5043;41.766;26.204;2022-12-20T12:14:04;17.75;;;8.60;;
10007;SDS011;5043;41.766;26.204;2022-12-20T12:16:38;13.93;;;7.95;;
10007;SDS011;5043;41.766;26.204;2022-12-20T12:19:09;15.77;;;8.25;;
10007;SDS011;5043;41.766;26.204;2022-12-20T12:21:38;11.77;;;6.80;;
10007;SDS011;5043;41.766;26.204;2022-12-20T12:24:28;8.57;;;5.95;;
10007;SDS011;5043;41.766;26.204;2022-12-20T12:26:54;10.10;;;5.75;;
10007;SDS011;5043;41.766;26.204;2022-12-20T12:29:23;20.35;;;9.27;;
10007;SDS011;5043;41.766;26.204;2022-12-20T12:31:51;7.97;;;5.13;;
10007;SDS011;5043;41.766;26.204;2022-12-20T12:39:50;8.35;;;5.68;;
10007;SDS011;5043;41.766;26.204;2022-12-20T12:45:04;6.15;;;4.30;;
10007;SDS011;5043;41.766;26.204;2022-12-20T12:50:02;4.65;;;3.45;;
10007;SDS011;5043;41.766;26.204;2022-12-20T12:52:39;8.82;;;4.75;;
10007;SDS011;5043;41.766;26.204;2022-12-20T13:03:40;6.75;;;3.63;;
10007;SDS011;5043;41.766;26.204;2022-12-20T13:11:45;5.32;;;3.83;;
10007;SDS011;5043;41.766;26.204;2022-12-20T13:16:45;7.95;;;4.03;;
10007;SDS011;5043;41.766;26.204;2022-12-20T13:19:14;10.57;;;3.97;;
10007;SDS011;5043;41.766;26.204;2022-12-20T13:21:45;8.20;;;3.73;;
10007;SDS011;5043;41.766;26.204;2022-12-20T13:26:56;5.72;;;3.53;;
10007;SDS011;5043;41.766;26.204;2022-12-20T13:29:32;7.60;;;4.22;;
10007;SDS011;5043;41.766;26.204;2022-12-20T13:31:59;6.43;;;3.63;;
10007;SDS011;5043;41.766;26.204;2022-12-20T13:34:35;6.50;;;4.37;;
10007;SDS011;5043;41.766;26.204;2022-12-20T13:37:25;6.90;;;4.00;;
10007;SDS011;5043;41.766;26.204;2022-12-20T13:39:52;7.10;;;4.73;;
10007;SDS011;5043;41.766;26.204;2022-12-20T13:42:23;6.87;;;4.67;;
10007;SDS011;5043;41.766;26.204;2022-12-20T13:44:57;17.08;;;6.85;;
10007;SDS011;5043;41.766;26.204;2022-12-20T13:47:30;19.48;;;9.13;;
10007;SDS011;5043;41.766;26.204;2022-12-20T13:52:50;11.32;;;7.07;;
10007;SDS011;5043;41.766;26.204;2022-12-20T13:55:32;9.02;;;5.38;;
10007;SDS011;5043;41.766;26.204;2022-12-20T13:58:09;8.60;;;6.30;;
10007;SDS011;5043;41.766;26.204;2022-12-20T14:00:41;15.90;;;7.68;;
10007;SDS011;5043;41.766;26.204;2022-12-20T14:05:45;9.98;;;5.55;;
10007;SDS011;5043;41.766;26.204;2022-12-20T14:08:15;12.87;;;7.50;;
10007;SDS011;5043;41.766;26.204;2022-12-20T14:10:44;10.27;;;6.88;;
10007;SDS011;5043;41.766;26.204;2022-12-20T14:13:20;14.23;;;7.37;;
10007;SDS011;5043;41.766;26.204;2022-12-20T14:15:51;15.00;;;9.37;;
10007;SDS011;5043;41.766;26.204;2022-12-20T14:18:23;10.63;;;6.20;;
10007;SDS011;5043;41.766;26.204;2022-12-20T14:20:51;9.65;;;6.80;;
10007;SDS011;5043;41.766;26.204;2022-12-20T14:23:22;13.45;;;8.88;;
10007;SDS011;5043;41.766;26.204;2022-12-20T14:26:18;18.02;;;9.98;;
10007;SDS011;5043;41.766;26.204;2022-12-20T14:28:49;23.02;;;11.80;;
10007;SDS011;5043;41.766;26.204;2022-12-20T14:31:23;20.00;;;12.10;;
10007;SDS011;5043;41.766;26.204;2022-12-20T14:34:11;18.92;;;8.95;;
10007;SDS011;5043;41.766;26.204;2022-12-20T14:36:46;21.10;;;10.52;;
10007;SDS011;5043;41.766;26.204;2022-12-20T14:39:28;16.48;;;8.95;;
10007;SDS011;5043;41.766;26.204;2022-12-20T14:41:58;11.10;;;7.88;;
10007;SDS011;5043;41.766;26.204;2022-12-20T14:44:25;15.52;;;9.85;;
10007;SDS011;5043;41.766;26.204;2022-12-20T14:46:56;24.67;;;9.85;;
10007;SDS011;5043;41.766;26.204;2022-12-20T14:49:29;9.68;;;5.97;;
10007;SDS011;5043;41.766;26.204;2022-12-20T14:52:14;14.90;;;8.38;;
10007;SDS011;5043;41.766;26.204;2022-12-20T14:58:05;15.13;;;8.50;;
10007;SDS011;5043;41.766;26.204;2022-12-20T15:02:49;18.93;;;11.53;;
10007;SDS011;5043;41.766;26.204;2022-12-20T15:10:47;15.60;;;8.07;;
10007;SDS011;5043;41.766;26.204;2022-12-20T15:13:16;14.13;;;8.20;;
10007;SDS011;5043;41.766;26.204;2022-12-20T15:15:43;20.60;;;10.40;;
10007;SDS011;5043;41.766;26.204;2022-12-20T15:18:14;16.33;;;9.63;;
10007;SDS011;5043;41.766;26.204;2022-12-20T15:20:42;27.60;;;13.47;;
10007;SDS011;5043;41.766;26.204;2022-12-20T15:23:17;19.07;;;12.83;;
10007;SDS011;5043;41.766;26.204;2022-12-20T15:25:45;23.27;;;14.60;;
10007;SDS011;5043;41.766;26.204;2022-12-20T15:28:11;33.33;;;19.17;;
10007;SDS011;5043;41.766;26.204;2022-12-20T15:30:42;36.53;;;22.23;;
10007;SDS011;5043;41.766;26.204;2022-12-20T15:33:14;41.23;;;22.83;;
10007;SDS011;5043;41.766;26.204;2022-12-20T15:35:41;39.60;;;20.80;;
10007;SDS011;5043;41.766;26.204;2022-12-20T15:38:11;25.33;;;15.40;;
10007;SDS011;5043;41.766;26.204;2022-12-20T15:40:38;28.05;;;17.42;;
10007;SDS011;5043;41.766;26.204;2022-12-20T15:43:04;18.37;;;11.70;;
10007;SDS011;5043;41.766;26.204;2022-12-20T15:45:29;18.27;;;9.43;;
10007;SDS011;5043;41.766;26.204;2022-12-20T15:47:56;19.63;;;10.83;;
10007;SDS011;5043;41.766;26.204;2022-12-20T15:50:22;37.53;;;17.30;;
10007;SDS011;5043;41.766;26.204;2022-12-20T15:52:47;33.50;;;18.60;;
10007;SDS011;5043;41.766;26.204;2022-12-20T15:55:12;31.17;;;17.63;;
10007;SDS011;5043;41.766;26.204;2022-12-20T15:57:38;48.47;;;21.80;;
10007;SDS011;5043;41.766;26.204;2022-12-20T16:00:04;26.00;;;15.20;;
10007;SDS011;5043;41.766;26.204;2022-12-20T16:02:30;24.98;;;15.77;;
10007;SDS011;5043;41.766;26.204;2022-12-20T16:04:56;38.63;;;19.67;;
10007;SDS011;5043;41.766;26.204;2022-12-20T16:07:22;29.93;;;16.27;;
10007;SDS011;5043;41.766;26.204;2022-12-20T16:09:48;26.47;;;16.43;;
10007;SDS011;5043;41.766;26.204;2022-12-20T16:12:18;18.63;;;12.10;;
10007;SDS011;5043;41.766;26.204;2022-12-20T16:14:48;17.87;;;10.83;;
10007;SDS011;5043;41.766;26.204;2022-12-20T16:17:14;20.13;;;13.53;;
10007;SDS011;5043;41.766;26.204;2022-12-20T16:19:40;17.47;;;11.50;;
10007;SDS011;5043;41.766;26.204;2022-12-20T16:22:09;23.77;;;16.03;;
10007;SDS011;5043;41.766;26.204;2022-12-20T16:24:44;27.83;;;19.27;;
10007;SDS011;5043;41.766;26.204;2022-12-20T16:27:09;31.07;;;19.40;;
10007;SDS011;5043;41.766;26.204;2022-12-20T16:29:35;45.03;;;23.67;;
10007;SDS011;5043;41.766;26.204;2022-12-20T16:32:00;36.77;;;16.57;;
10007;SDS011;5043;41.766;26.204;2022-12-20T16:34:26;32.97;;;16.93;;
10007;SDS011;5043;41.766;26.204;2022-12-20T16:36:51;24.40;;;13.17;;
10007;SDS011;5043;41.766;26.204;2022-12-20T16:39:17;23.53;;;13.77;;
10007;SDS011;5043;41.766;26.204;2022-12-20T16:41:43;38.17;;;14.93;;